Eagle Lake, Eagle Lake Airport (KELA)

NameEagle Lake Airport
CityEagle Lake
CountryUnited States
ICAOKELA
IATAELA
Altitude56 m
CoordinatesGoogle Map
Live Air TrafficLiveATC.net
METARKELA 181855Z AUTO 08004G14KT 10SM CLR 19/02 A3028 RMK AO2 T01900016
2019-03-18 18:55:00 Wind: East-Northeast (80°) 2.06 m/s - Visibility: 16093.4 m - Temperature: 19 °C - Dew point: 2 °C - Humidity: 32.3% - Pressure: 1025.4 hPa
Statistics

The table below shows the detailed information of all flights to/from Eagle Lake, Eagle Lake Airport (KELA).